Time;durP1;ratioP1;P1;durP2;ratioP2;P2;SDS_P1;SDS_P2;PMS_P1;PMS_P2;Temp;Humidity;BMP_temperature;BMP_pressure;BME280_temperature;BME280_humidity;BME280_pressure;Samples;Min_cycle;Max_cycle;Signal;HPM_P1;HPM_P2
2020/12/18 00:02:12;;;;;;;32.77;16.60;;;6.50;99.90;;;;;;4399272;32;20159;-67
2020/12/18 00:04:46;;;;;;;29.77;16.03;;;6.70;99.90;;;;;;4396411;32;20446;-68
2020/12/18 00:07:15;;;;;;;27.90;15.17;;;6.70;99.90;;;;;;4399241;32;20174;-68
2020/12/18 00:09:44;;;;;;;26.47;15.03;;;6.70;99.90;;;;;;4397007;32;20258;-69
2020/12/18 00:12:11;;;;;;;26.40;15.10;;;6.60;99.90;;;;;;4394687;32;20139;-67
2020/12/18 00:14:39;;;;;;;28.27;16.53;;;6.50;99.90;;;;;;4392530;32;20161;-67
2020/12/18 00:17:10;;;;;;;34.97;17.87;;;6.50;99.90;;;;;;4393899;32;20215;-67
2020/12/18 00:19:39;;;;;;;30.90;16.57;;;6.60;99.90;;;;;;4396386;32;20152;-67
2020/12/18 00:22:10;;;;;;;32.97;16.70;;;6.70;99.90;;;;;;4392473;32;20197;-66
2020/12/18 00:24:43;;;;;;;32.80;16.73;;;6.70;99.90;;;;;;4401516;32;20183;-67
2020/12/18 00:27:13;;;;;;;33.13;18.33;;;6.60;99.90;;;;;;4396009;32;20136;-69
2020/12/18 00:29:42;;;;;;;27.77;16.37;;;6.60;99.90;;;;;;4398602;32;20167;-68
2020/12/18 00:32:15;;;;;;;28.87;17.57;;;6.50;99.90;;;;;;4400444;32;20609;-68
2020/12/18 00:34:50;;;;;;;28.70;16.37;;;6.60;99.90;;;;;;4398526;32;20587;-68
2020/12/18 00:37:20;;;;;;;30.80;18.07;;;6.50;99.90;;;;;;4399375;32;20183;-67
2020/12/18 00:39:48;;;;;;;35.57;17.10;;;6.40;99.90;;;;;;4399320;32;20187;-67
2020/12/18 00:42:19;;;;;;;31.73;18.83;;;6.50;99.90;;;;;;4393524;32;20305;-66
2020/12/18 00:44:50;;;;;;;34.37;17.60;;;6.50;99.90;;;;;;4395535;32;20588;-67
2020/12/18 00:47:21;;;;;;;29.93;17.60;;;6.40;99.90;;;;;;4399278;32;20688;-67
2020/12/18 00:49:47;;;;;;;28.20;18.37;;;6.40;99.90;;;;;;4397720;32;20148;-68
2020/12/18 00:52:20;;;;;;;29.47;18.73;;;6.30;99.90;;;;;;4400220;32;20147;-67
2020/12/18 00:54:55;;;;;;;29.03;17.47;;;6.40;99.90;;;;;;4399697;32;20262;-67
2020/12/18 00:57:21;;;;;;;26.50;17.63;;;6.30;99.90;;;;;;4394065;32;20201;-67
2020/12/18 00:59:53;;;;;;;34.43;18.80;;;6.30;99.90;;;;;;4399334;32;20752;-68
2020/12/18 01:02:23;;;;;;;28.33;17.57;;;6.30;99.90;;;;;;4396386;32;20482;-67
2020/12/18 01:04:49;;;;;;;32.93;17.87;;;6.30;99.90;;;;;;4398458;32;21129;-67
2020/12/18 01:07:16;;;;;;;32.67;19.33;;;6.30;99.90;;;;;;4394963;32;20451;-67
2020/12/18 01:09:46;;;;;;;30.57;18.70;;;6.30;99.90;;;;;;4396396;32;20242;-68
2020/12/18 01:12:14;;;;;;;29.40;18.00;;;6.30;99.90;;;;;;4398893;32;20178;-67
2020/12/18 01:14:44;;;;;;;34.73;18.50;;;6.20;99.90;;;;;;4396321;32;20160;-67
2020/12/18 01:17:16;;;;;;;24.23;17.30;;;6.30;99.90;;;;;;4398666;32;20567;-68
2020/12/18 01:19:45;;;;;;;29.00;17.27;;;6.30;99.90;;;;;;4390425;32;20161;-68
2020/12/18 01:22:19;;;;;;;34.90;19.40;;;6.20;99.90;;;;;;4391597;32;20238;-68
2020/12/18 01:24:49;;;;;;;30.57;19.17;;;6.30;99.90;;;;;;4392177;32;20585;-69
2020/12/18 01:27:19;;;;;;;32.47;18.77;;;6.30;99.90;;;;;;4398874;32;20191;-68
2020/12/18 01:29:52;;;;;;;36.50;18.80;;;6.20;99.90;;;;;;4389089;32;20160;-67
2020/12/18 01:32:28;;;;;;;28.97;18.77;;;6.20;99.90;;;;;;4398097;32;20167;-67
2020/12/18 01:34:57;;;;;;;37.17;18.07;;;6.10;99.90;;;;;;4395405;32;20187;-67
2020/12/18 01:37:23;;;;;;;29.87;18.70;;;6.20;99.90;;;;;;4399533;32;20160;-68
2020/12/18 01:39:53;;;;;;;38.90;19.90;;;6.10;99.90;;;;;;4399076;32;20201;-68
2020/12/18 01:42:19;;;;;;;31.73;18.50;;;6.10;99.90;;;;;;4394857;32;20237;-69
2020/12/18 01:44:51;;;;;;;30.20;17.53;;;6.20;99.90;;;;;;4394718;32;20174;-69
2020/12/18 01:47:29;;;;;;;32.60;17.57;;;6.10;99.90;;;;;;4400924;32;20195;-67
2020/12/18 01:49:56;;;;;;;29.70;17.97;;;6.10;99.90;;;;;;4399345;32;20584;-67
2020/12/18 01:52:25;;;;;;;27.67;17.63;;;6.20;99.90;;;;;;4401329;32;20282;-67
2020/12/18 01:54:54;;;;;;;34.17;18.70;;;6.20;99.90;;;;;;4399072;32;20289;-68
2020/12/18 01:57:24;;;;;;;33.43;18.70;;;6.20;99.90;;;;;;4401033;32;20219;-66
2020/12/18 01:59:53;;;;;;;28.93;17.97;;;6.20;99.90;;;;;;4400508;32;20235;-68
2020/12/18 02:02:19;;;;;;;26.13;17.23;;;6.20;99.90;;;;;;4398453;32;20223;-68
2020/12/18 02:04:51;;;;;;;30.80;15.80;;;6.10;99.90;;;;;;4398507;32;20227;-67
2020/12/18 02:07:22;;;;;;;35.13;18.03;;;6.20;99.90;;;;;;4399757;32;20176;-67
2020/12/18 02:09:53;;;;;;;28.47;17.37;;;6.10;99.90;;;;;;4401854;32;20198;-67
2020/12/18 02:12:20;;;;;;;31.43;18.93;;;6.10;99.90;;;;;;4397907;32;20162;-68
2020/12/18 02:14:48;;;;;;;28.13;16.73;;;6.10;99.90;;;;;;4402228;32;20167;-68
2020/12/18 02:17:15;;;;;;;30.40;16.77;;;6.10;99.90;;;;;;4398941;32;20622;-68
2020/12/18 02:19:58;;;;;;;30.43;16.80;;;6.10;99.90;;;;;;4393251;32;20587;-67
2020/12/18 02:22:32;;;;;;;36.63;17.40;;;6.10;99.90;;;;;;4398793;32;20147;-67
2020/12/18 02:25:06;;;;;;;33.53;16.63;;;6.10;99.90;;;;;;4391356;32;20187;-67
2020/12/18 02:27:47;;;;;;;29.80;16.00;;;6.10;99.90;;;;;;4392350;32;20144;-67
2020/12/18 02:30:19;;;;;;;33.33;17.13;;;6.20;99.90;;;;;;4398631;32;20144;-67
2020/12/18 02:32:53;;;;;;;30.17;16.03;;;6.30;99.90;;;;;;4400408;32;20249;-67
2020/12/18 02:35:20;;;;;;;38.20;17.90;;;6.20;99.90;;;;;;4400307;32;20174;-67
2020/12/18 02:37:46;;;;;;;41.63;17.20;;;6.10;99.90;;;;;;4392888;32;20174;-67
2020/12/18 02:40:14;;;;;;;35.47;16.67;;;6.00;99.90;;;;;;4399800;32;20549;-68
2020/12/18 02:42:46;;;;;;;41.27;18.50;;;6.00;99.90;;;;;;4395894;32;20147;-68
2020/12/18 02:45:16;;;;;;;33.00;17.83;;;6.10;99.90;;;;;;4394403;32;20152;-68
2020/12/18 02:47:46;;;;;;;33.37;17.73;;;6.00;99.90;;;;;;4390658;32;20143;-68
2020/12/18 02:50:13;;;;;;;37.53;17.23;;;5.90;99.90;;;;;;4393104;32;20213;-68
2020/12/18 02:52:42;;;;;;;31.30;19.40;;;5.90;99.90;;;;;;4393227;32;20606;-68
2020/12/18 02:55:09;;;;;;;31.63;16.10;;;5.90;99.90;;;;;;4402063;32;20156;-68
2020/12/18 02:57:46;;;;;;;33.47;17.30;;;5.90;99.90;;;;;;4398127;32;20242;-68
2020/12/18 03:00:14;;;;;;;37.77;19.30;;;5.90;99.90;;;;;;4394550;32;20173;-68
2020/12/18 03:02:45;;;;;;;32.10;17.63;;;5.90;99.90;;;;;;4396086;32;20237;-68
2020/12/18 03:05:18;;;;;;;38.83;19.67;;;5.90;99.90;;;;;;4400959;32;20199;-68
2020/12/18 03:07:49;;;;;;;37.73;18.60;;;5.90;99.90;;;;;;4396281;32;20207;-68
2020/12/18 03:10:21;;;;;;;32.80;17.23;;;5.90;99.90;;;;;;4395299;32;20369;-68
2020/12/18 03:12:48;;;;;;;37.80;18.57;;;5.80;99.90;;;;;;4394850;32;20230;-68
2020/12/18 03:15:21;;;;;;;41.83;19.47;;;5.80;99.90;;;;;;4394473;32;20243;-68
2020/12/18 03:17:50;;;;;;;36.80;19.67;;;5.80;99.90;;;;;;4397046;32;20248;-68
2020/12/18 03:20:19;;;;;;;29.70;18.20;;;5.80;99.90;;;;;;4402861;32;20147;-68
2020/12/18 03:22:46;;;;;;;37.20;18.83;;;5.70;99.90;;;;;;4394680;32;20139;-68
2020/12/18 03:25:14;;;;;;;42.60;18.37;;;5.70;99.90;;;;;;4401415;32;20324;-68
2020/12/18 03:27:43;;;;;;;40.17;18.33;;;5.70;99.90;;;;;;4399687;32;20187;-68
2020/12/18 03:30:10;;;;;;;38.00;18.00;;;5.80;99.90;;;;;;4400407;32;20227;-68
2020/12/18 03:32:36;;;;;;;35.73;17.13;;;5.80;99.90;;;;;;4398305;32;20216;-68
2020/12/18 03:35:11;;;;;;;40.80;18.17;;;5.80;99.90;;;;;;4393579;32;20234;-68
2020/12/18 03:37:43;;;;;;;42.93;18.57;;;5.80;99.90;;;;;;4401090;32;20273;-68
2020/12/18 03:40:16;;;;;;;39.37;19.43;;;5.70;99.90;;;;;;4400320;32;20175;-68
2020/12/18 03:42:42;;;;;;;32.50;16.77;;;5.80;99.90;;;;;;4400107;32;20193;-68
2020/12/18 03:45:23;;;;;;;33.63;17.10;;;5.80;99.90;;;;;;4400411;32;20143;-68
2020/12/18 03:47:53;;;;;;;31.17;17.57;;;5.80;99.90;;;;;;4398758;32;20438;-68
2020/12/18 03:50:22;;;;;;;34.67;16.33;;;5.80;99.90;;;;;;4395627;32;20190;-68
2020/12/18 03:52:48;;;;;;;39.70;17.93;;;5.80;99.90;;;;;;4389991;32;20206;-68
2020/12/18 03:55:17;;;;;;;33.10;17.03;;;5.70;99.90;;;;;;4390124;32;20265;-68
2020/12/18 03:57:46;;;;;;;38.27;18.23;;;5.70;99.90;;;;;;4401033;32;20205;-67
2020/12/18 04:00:14;;;;;;;33.53;17.97;;;5.70;99.90;;;;;;4390460;32;20174;-66
2020/12/18 04:02:40;;;;;;;35.97;18.47;;;5.80;99.90;;;;;;4394296;32;20158;-66
2020/12/18 04:05:08;;;;;;;36.70;17.97;;;5.90;99.90;;;;;;4397094;32;20576;-67
2020/12/18 04:07:38;;;;;;;36.43;17.90;;;5.70;99.90;;;;;;4396149;32;20202;-66
2020/12/18 04:10:07;;;;;;;36.33;18.47;;;5.70;99.90;;;;;;4396560;32;20163;-66
2020/12/18 04:12:42;;;;;;;42.70;18.03;;;5.70;99.90;;;;;;4401222;32;20147;-69
2020/12/18 04:15:11;;;;;;;38.27;18.50;;;5.80;99.90;;;;;;4398431;32;20151;-67
2020/12/18 04:17:43;;;;;;;37.47;20.13;;;5.80;99.90;;;;;;4400783;32;20579;-67
2020/12/18 04:20:13;;;;;;;37.63;19.63;;;5.80;99.90;;;;;;4397224;32;20155;-67
2020/12/18 04:22:39;;;;;;;39.50;19.87;;;5.80;99.90;;;;;;4389724;32;20166;-67
2020/12/18 04:25:06;;;;;;;32.77;18.20;;;5.80;99.90;;;;;;4395674;32;20170;-68
2020/12/18 04:27:33;;;;;;;46.83;19.07;;;5.80;99.90;;;;;;4402302;32;20148;-67
2020/12/18 04:30:01;;;;;;;41.50;19.47;;;5.80;99.90;;;;;;4396386;32;20143;-67
2020/12/18 04:32:29;;;;;;;39.67;17.80;;;5.90;99.90;;;;;;4401157;32;20709;-68
2020/12/18 04:35:03;;;;;;;34.77;18.20;;;5.80;99.90;;;;;;4392605;32;20191;-67
2020/12/18 04:37:30;;;;;;;29.60;18.70;;;5.90;99.90;;;;;;4400986;32;20191;-67
2020/12/18 04:40:04;;;;;;;28.67;16.73;;;5.90;99.90;;;;;;4390056;32;20163;-67
2020/12/18 04:42:32;;;;;;;34.70;16.83;;;6.00;99.90;;;;;;4391014;32;20230;-67
2020/12/18 04:47:48;;;;;;;36.10;14.77;;;6.10;99.90;;;;;;4393022;32;20259;-67
2020/12/18 04:50:16;;;;;;;44.13;16.00;;;6.10;99.90;;;;;;4397798;32;20152;-69
2020/12/18 04:52:46;;;;;;;39.10;16.17;;;6.10;99.90;;;;;;4395277;32;20635;-67
2020/12/18 04:55:14;;;;;;;35.60;16.03;;;6.10;99.90;;;;;;4393535;32;20641;-69
2020/12/18 04:57:45;;;;;;;33.83;15.57;;;6.00;99.90;;;;;;4399701;32;20507;-67
2020/12/18 05:00:14;;;;;;;32.90;15.83;;;6.10;99.90;;;;;;4394194;32;20243;-68
2020/12/18 05:02:41;;;;;;;33.23;14.83;;;6.10;99.90;;;;;;4400375;32;20199;-67
2020/12/18 05:05:10;;;;;;;31.00;14.63;;;6.10;99.90;;;;;;4395814;32;20207;-67
2020/12/18 05:07:43;;;;;;;29.90;14.60;;;6.20;99.90;;;;;;4396867;32;20208;-68
2020/12/18 05:10:10;;;;;;;26.37;13.23;;;6.20;99.90;;;;;;4394592;32;20148;-67
2020/12/18 05:12:41;;;;;;;26.03;13.20;;;6.20;99.90;;;;;;4391075;32;20144;-67
2020/12/18 05:15:10;;;;;;;28.63;13.20;;;6.20;99.90;;;;;;4395635;32;20212;-67
2020/12/18 05:17:37;;;;;;;27.90;13.97;;;6.20;99.90;;;;;;4398579;32;20219;-69
2020/12/18 05:20:09;;;;;;;26.97;13.57;;;6.30;99.90;;;;;;4396475;32;20264;-67
2020/12/18 05:22:42;;;;;;;23.80;13.17;;;6.30;99.90;;;;;;4400175;32;20205;-68
2020/12/18 05:25:09;;;;;;;28.10;12.97;;;6.40;99.90;;;;;;4399986;32;20143;-67
2020/12/18 05:27:40;;;;;;;37.10;13.97;;;6.30;99.90;;;;;;4400294;32;20144;-69
2020/12/18 05:30:10;;;;;;;26.37;13.10;;;6.30;99.90;;;;;;4396699;32;20793;-68
2020/12/18 05:32:40;;;;;;;23.67;12.70;;;6.40;99.90;;;;;;4396689;32;20514;-69
2020/12/18 05:35:16;;;;;;;27.07;14.67;;;6.40;99.90;;;;;;4392389;32;20491;-68
2020/12/18 05:37:51;;;;;;;27.43;12.93;;;6.40;99.90;;;;;;4393945;32;20589;-69
2020/12/18 05:40:18;;;;;;;30.07;13.63;;;6.40;99.90;;;;;;4401250;32;20182;-69
2020/12/18 05:42:46;;;;;;;30.57;12.50;;;6.40;99.90;;;;;;4402634;32;20155;-69
2020/12/18 05:45:24;;;;;;;22.40;13.03;;;6.40;99.90;;;;;;4394690;32;20167;-68
2020/12/18 05:47:55;;;;;;;30.07;12.30;;;6.50;99.90;;;;;;4397253;32;20215;-67
2020/12/18 05:50:30;;;;;;;25.90;11.43;;;6.40;99.90;;;;;;4398695;32;20148;-70
2020/12/18 05:53:00;;;;;;;23.73;11.70;;;6.50;99.90;;;;;;4395748;32;20253;-68
2020/12/18 05:55:27;;;;;;;27.43;12.13;;;6.30;99.90;;;;;;4391422;32;20156;-68
2020/12/18 05:57:56;;;;;;;26.80;11.67;;;6.50;99.90;;;;;;4393015;32;20227;-69
2020/12/18 06:00:23;;;;;;;26.97;11.20;;;6.50;99.90;;;;;;4399065;32;20476;-68
2020/12/18 06:03:00;;;;;;;21.67;11.47;;;6.40;99.90;;;;;;4398536;32;20637;-69
2020/12/18 06:05:28;;;;;;;19.90;11.40;;;6.50;99.90;;;;;;4399441;32;20216;-67
2020/12/18 06:07:54;;;;;;;21.73;11.10;;;6.50;99.90;;;;;;4394179;32;20211;-68
2020/12/18 06:10:24;;;;;;;26.13;11.87;;;6.40;99.90;;;;;;4392350;32;20227;-68
2020/12/18 06:13:05;;;;;;;29.80;11.93;;;6.60;99.90;;;;;;4395578;32;20163;-67
2020/12/18 06:15:36;;;;;;;29.17;11.43;;;6.40;99.90;;;;;;4400348;32;20155;-67
2020/12/18 06:18:07;;;;;;;24.17;10.67;;;6.40;99.90;;;;;;4395760;32;20158;-67
2020/12/18 06:20:36;;;;;;;23.77;11.13;;;6.50;99.90;;;;;;4401157;32;20227;-68
2020/12/18 06:23:05;;;;;;;26.23;12.37;;;6.40;99.90;;;;;;4395508;32;20167;-67
2020/12/18 06:25:42;;;;;;;23.93;12.33;;;6.50;99.90;;;;;;4393633;32;20608;-68
2020/12/18 06:28:09;;;;;;;23.27;11.30;;;6.40;99.90;;;;;;4393184;32;20606;-68
2020/12/18 06:30:39;;;;;;;31.47;10.53;;;6.50;99.90;;;;;;4402000;32;20205;-70
2020/12/18 06:33:18;;;;;;;23.67;11.60;;;6.60;99.90;;;;;;4394291;32;20148;-68
2020/12/18 06:35:47;;;;;;;20.20;10.93;;;6.60;99.90;;;;;;4391628;32;20280;-68
2020/12/18 06:38:26;;;;;;;21.40;10.50;;;6.60;99.90;;;;;;4390835;32;20225;-68
2020/12/18 06:40:54;;;;;;;23.63;10.87;;;6.70;99.90;;;;;;4395047;32;20177;-69
2020/12/18 06:43:37;;;;;;;25.77;10.97;;;6.60;99.90;;;;;;4397134;32;20231;-68
2020/12/18 06:46:07;;;;;;;19.90;10.57;;;6.60;99.90;;;;;;4391446;32;20201;-69
2020/12/18 06:48:37;;;;;;;24.17;11.57;;;6.60;99.90;;;;;;4390789;32;20160;-70
2020/12/18 06:51:31;;;;;;;21.63;11.50;;;6.60;99.90;;;;;;4391310;32;20171;-69
2020/12/18 06:54:12;;;;;;;23.43;11.47;;;6.60;99.90;;;;;;4397555;32;20631;-68
2020/12/18 06:56:43;;;;;;;22.97;11.40;;;6.60;99.90;;;;;;4391066;32;20168;-67
2020/12/18 06:59:22;;;;;;;22.37;11.20;;;6.60;99.90;;;;;;4399118;32;20164;-67
2020/12/18 07:01:54;;;;;;;23.20;10.77;;;6.70;99.90;;;;;;4392152;32;20159;-68
2020/12/18 07:04:21;;;;;;;21.67;10.97;;;6.70;99.90;;;;;;4400564;32;20158;-68
2020/12/18 07:06:50;;;;;;;23.93;10.90;;;6.80;99.90;;;;;;4403086;32;20248;-68
2020/12/18 07:09:24;;;;;;;18.70;10.47;;;6.80;99.90;;;;;;4393312;32;20219;-68
2020/12/18 07:12:02;;;;;;;24.33;10.10;;;7.00;99.90;;;;;;4392257;32;20144;-68
2020/12/18 07:14:33;;;;;;;22.07;9.97;;;6.90;99.90;;;;;;4394262;32;20151;-68
2020/12/18 07:17:13;;;;;;;21.13;10.80;;;7.10;99.90;;;;;;4395771;32;20160;-68
2020/12/18 07:19:41;;;;;;;15.07;10.27;;;7.10;99.90;;;;;;4394551;32;20485;-69
2020/12/18 07:22:15;;;;;;;20.40;12.00;;;7.10;99.90;;;;;;4397880;32;20234;-67
2020/12/18 07:24:50;;;;;;;20.00;10.90;;;7.20;99.90;;;;;;4395292;32;20148;-69
2020/12/18 07:27:22;;;;;;;19.17;10.73;;;7.20;99.90;;;;;;4394169;32;20182;-69
2020/12/18 07:29:54;;;;;;;20.77;10.67;;;7.30;99.90;;;;;;4392133;32;20292;-68
2020/12/18 07:32:30;;;;;;;18.37;10.50;;;7.30;99.90;;;;;;4391355;32;20167;-68
2020/12/18 07:35:09;;;;;;;22.93;10.83;;;7.30;99.90;;;;;;4391751;32;20230;-68
2020/12/18 07:37:48;;;;;;;20.93;11.10;;;7.40;99.90;;;;;;4079900;32;10284207;-68
2020/12/18 07:40:20;;;;;;;25.00;13.07;;;7.50;99.90;;;;;;4391428;32;20205;-67
2020/12/18 07:42:47;;;;;;;17.90;11.30;;;7.40;99.90;;;;;;4393551;32;20179;-68
2020/12/18 07:45:13;;;;;;;21.33;12.60;;;7.50;99.90;;;;;;4394345;32;20471;-69
2020/12/18 07:47:41;;;;;;;23.57;13.13;;;7.60;99.90;;;;;;4394326;32;20557;-69
2020/12/18 07:50:13;;;;;;;23.37;14.70;;;7.60;99.90;;;;;;4396793;32;20231;-68
2020/12/18 07:52:39;;;;;;;22.37;14.07;;;7.60;99.90;;;;;;4393434;32;20152;-69
2020/12/18 07:55:11;;;;;;;27.47;17.07;;;7.60;99.90;;;;;;4389635;32;20526;-69
2020/12/18 07:57:45;;;;;;;24.03;17.03;;;7.70;99.90;;;;;;4395199;32;20227;-69
2020/12/18 08:00:15;;;;;;;26.30;18.17;;;7.80;99.90;;;;;;4393837;32;20522;-68
2020/12/18 08:02:48;;;;;;;23.70;15.83;;;7.80;99.90;;;;;;4395616;32;20644;-69
2020/12/18 08:05:27;;;;;;;24.77;14.50;;;7.70;99.90;;;;;;4394987;32;20461;-69
2020/12/18 08:08:00;;;;;;;24.63;15.60;;;7.80;99.90;;;;;;4396646;32;20147;-68
2020/12/18 08:10:35;;;;;;;31.17;16.67;;;7.90;99.90;;;;;;4391835;32;20167;-69
2020/12/18 08:13:07;;;;;;;25.43;15.23;;;7.90;99.90;;;;;;4391016;32;20630;-68
2020/12/18 08:15:44;;;;;;;25.10;16.30;;;7.90;99.90;;;;;;4394639;32;20183;-68
2020/12/18 08:18:16;;;;;;;27.27;16.53;;;8.00;99.90;;;;;;4395439;32;20159;-67
2020/12/18 08:20:49;;;;;;;29.20;16.87;;;8.00;99.90;;;;;;4393304;32;20186;-67
2020/12/18 08:23:29;;;;;;;21.97;15.90;;;8.00;99.90;;;;;;4395649;32;20194;-66
2020/12/18 08:26:04;;;;;;;26.07;16.93;;;7.90;99.90;;;;;;4396246;32;20194;-66
2020/12/18 08:28:34;;;;;;;25.80;16.00;;;8.00;99.90;;;;;;4393851;32;20164;-67
2020/12/18 08:31:06;;;;;;;24.63;15.57;;;8.00;99.90;;;;;;4392853;32;20175;-69
2020/12/18 08:33:51;;;;;;;24.97;16.03;;;8.10;99.90;;;;;;4392804;32;20174;-66
2020/12/18 08:36:23;;;;;;;31.93;16.90;;;8.10;99.90;;;;;;4395843;32;20225;-68
2020/12/18 08:39:04;;;;;;;26.30;17.07;;;8.10;99.90;;;;;;4397269;32;20181;-69
2020/12/18 08:41:44;;;;;;;27.97;16.00;;;8.00;99.90;;;;;;4395073;32;20192;-71
2020/12/18 08:44:17;;;;;;;24.50;14.70;;;8.00;99.90;;;;;;4395618;32;20178;-68
2020/12/18 08:46:48;;;;;;;23.17;14.90;;;8.10;99.90;;;;;;4391312;32;20675;-70
2020/12/18 08:49:25;;;;;;;24.97;15.30;;;8.00;99.90;;;;;;4393074;32;20164;-70
2020/12/18 08:51:55;;;;;;;24.23;15.80;;;8.00;99.90;;;;;;4395456;32;20156;-71
2020/12/18 08:54:34;;;;;;;25.30;14.90;;;8.00;99.90;;;;;;4394173;32;20156;-72
2020/12/18 09:00:22;;;;;;;30.60;14.90;;;8.00;99.90;;;;;;4394724;32;21058;-73
2020/12/18 09:02:59;;;;;;;21.93;13.47;;;8.10;99.90;;;;;;4389846;32;20196;-71
2020/12/18 09:05:27;;;;;;;21.63;13.57;;;8.10;99.90;;;;;;4395026;32;20575;-70
2020/12/18 09:07:59;;;;;;;20.67;14.67;;;8.20;99.90;;;;;;4394760;32;20209;-72
2020/12/18 09:10:41;;;;;;;25.50;14.23;;;8.10;99.90;;;;;;4393221;32;20239;-72
2020/12/18 09:13:14;;;;;;;19.23;13.57;;;8.10;99.90;;;;;;4389526;32;20210;-73
2020/12/18 09:15:41;;;;;;;20.70;13.37;;;8.40;99.90;;;;;;4399947;32;20156;-75
2020/12/18 09:18:11;;;;;;;24.67;13.40;;;8.30;99.90;;;;;;4389263;32;20615;-70
2020/12/18 09:20:40;;;;;;;22.33;13.93;;;8.40;99.90;;;;;;4395090;32;20203;-73
2020/12/18 09:23:10;;;;;;;22.10;13.53;;;8.30;99.90;;;;;;4397459;32;20593;-72
2020/12/18 09:25:39;;;;;;;21.77;12.17;;;8.40;99.90;;;;;;4389439;32;20179;-71
2020/12/18 09:28:11;;;;;;;15.60;12.37;;;8.30;99.90;;;;;;4392294;32;20557;-73
2020/12/18 09:30:38;;;;;;;19.37;12.60;;;8.50;99.90;;;;;;4392545;32;20200;-69
2020/12/18 09:33:19;;;;;;;23.60;12.97;;;8.50;99.90;;;;;;4394765;32;20238;-72
2020/12/18 09:35:48;;;;;;;18.33;11.37;;;8.40;99.90;;;;;;4394124;32;20465;-71
2020/12/18 09:38:15;;;;;;;16.93;11.70;;;8.40;99.90;;;;;;4394008;32;20224;-71
2020/12/18 09:40:43;;;;;;;22.60;12.33;;;8.30;99.90;;;;;;4391202;32;20184;-70
2020/12/18 09:43:09;;;;;;;16.47;11.33;;;8.30;99.90;;;;;;4395641;32;20223;-70
2020/12/18 09:45:37;;;;;;;24.30;11.97;;;8.30;99.90;;;;;;4390585;32;20661;-70
2020/12/18 09:48:04;;;;;;;17.73;11.53;;;8.40;99.90;;;;;;4393538;32;20179;-70
2020/12/18 09:50:34;;;;;;;17.57;11.83;;;8.40;99.90;;;;;;4394177;32;20178;-71
2020/12/18 09:53:00;;;;;;;20.77;11.00;;;8.40;99.90;;;;;;4395196;32;20488;-70
2020/12/18 09:55:27;;;;;;;25.83;11.10;;;8.50;99.90;;;;;;4396554;32;20488;-72
2020/12/18 09:57:55;;;;;;;15.80;10.77;;;8.40;99.90;;;;;;4387416;32;20151;-71
2020/12/18 10:00:24;;;;;;;18.10;10.67;;;8.50;99.90;;;;;;4386305;32;20180;-70
2020/12/18 10:02:53;;;;;;;16.23;10.27;;;8.60;99.90;;;;;;4391756;32;20171;-70
2020/12/18 10:05:22;;;;;;;18.30;10.17;;;8.70;99.90;;;;;;4394780;32;20212;-72
2020/12/18 10:07:53;;;;;;;15.03;10.13;;;8.60;99.90;;;;;;4392709;32;20209;-71
2020/12/18 10:10:27;;;;;;;22.80;10.80;;;8.70;99.90;;;;;;4395569;32;20526;-70
2020/12/18 10:12:59;;;;;;;16.33;10.47;;;8.80;99.90;;;;;;4391887;32;20209;-70
2020/12/18 10:15:29;;;;;;;35.53;11.67;;;8.80;99.90;;;;;;4394542;32;20191;-71
2020/12/18 10:17:58;;;;;;;20.03;9.83;;;8.90;99.90;;;;;;4394719;32;20725;-71
2020/12/18 10:20:38;;;;;;;20.23;10.67;;;8.90;99.90;;;;;;4392985;32;20524;-70
2020/12/18 10:23:12;;;;;;;14.37;10.40;;;8.90;99.90;;;;;;4393540;32;20156;-70
2020/12/18 10:25:56;;;;;;;21.13;10.50;;;9.00;99.90;;;;;;4397124;32;20479;-68
2020/12/18 10:28:24;;;;;;;17.10;9.57;;;9.00;99.90;;;;;;4392589;32;20198;-70
2020/12/18 10:30:58;;;;;;;15.40;9.30;;;9.00;99.90;;;;;;4397494;32;20172;-69
2020/12/18 10:33:26;;;;;;;21.67;8.53;;;9.00;99.90;;;;;;4394337;32;20277;-70
2020/12/18 10:35:55;;;;;;;23.90;9.20;;;9.00;99.90;;;;;;4393681;32;20613;-69
2020/12/18 10:38:27;;;;;;;16.30;8.50;;;9.10;99.90;;;;;;4393075;32;20531;-71
2020/12/18 10:40:54;;;;;;;16.97;9.40;;;9.20;99.90;;;;;;4393691;32;20303;-71
2020/12/18 10:43:20;;;;;;;15.77;9.20;;;9.20;99.90;;;;;;4391805;32;20158;-70
2020/12/18 10:45:55;;;;;;;24.80;9.60;;;9.30;99.90;;;;;;4390806;32;20231;-70
2020/12/18 10:48:25;;;;;;;18.53;8.40;;;9.30;99.90;;;;;;4395423;32;20155;-72
2020/12/18 10:50:52;;;;;;;26.70;9.33;;;9.30;99.90;;;;;;4394549;32;20161;-72
2020/12/18 10:53:18;;;;;;;10.47;7.73;;;9.30;99.90;;;;;;4394237;32;20237;-74
2020/12/18 10:55:45;;;;;;;18.27;8.57;;;9.40;99.90;;;;;;4394902;32;20277;-72
2020/12/18 10:58:11;;;;;;;11.33;7.37;;;9.40;99.90;;;;;;4393519;32;20269;-72
2020/12/18 11:00:42;;;;;;;13.27;7.40;;;9.50;99.90;;;;;;4397427;32;20233;-72
2020/12/18 11:03:12;;;;;;;13.47;7.67;;;9.40;99.90;;;;;;4397466;32;20182;-72
2020/12/18 11:05:49;;;;;;;17.47;8.03;;;9.50;99.90;;;;;;4397445;32;20193;-72
2020/12/18 11:08:15;;;;;;;16.17;7.53;;;9.50;99.90;;;;;;4393342;32;20177;-71
2020/12/18 11:10:44;;;;;;;14.70;7.73;;;9.50;99.90;;;;;;4394463;32;20735;-72
2020/12/18 11:13:13;;;;;;;18.97;7.90;;;9.50;99.90;;;;;;4395259;32;20178;-72
2020/12/18 11:15:47;;;;;;;11.67;7.07;;;9.50;99.90;;;;;;4394065;32;20181;-73
2020/12/18 11:18:13;;;;;;;21.33;8.30;;;9.50;99.90;;;;;;4396275;32;20165;-73
2020/12/18 11:20:45;;;;;;;19.23;7.80;;;9.50;99.90;;;;;;4394059;32;20168;-73
2020/12/18 11:23:13;;;;;;;14.73;7.53;;;9.50;99.90;;;;;;4398420;32;20545;-71
2020/12/18 11:25:43;;;;;;;13.57;7.57;;;9.50;99.90;;;;;;4396877;32;20195;-72
2020/12/18 11:28:12;;;;;;;9.90;6.50;;;9.60;99.90;;;;;;4397721;32;20203;-72
2020/12/18 11:30:43;;;;;;;13.17;6.50;;;9.70;99.90;;;;;;4391933;32;20146;-70
2020/12/18 11:33:12;;;;;;;14.30;7.03;;;9.50;99.90;;;;;;4396978;32;20242;-72
2020/12/18 11:35:40;;;;;;;15.20;6.87;;;9.70;99.90;;;;;;4396587;32;20251;-75
2020/12/18 11:38:06;;;;;;;17.43;6.87;;;9.70;99.90;;;;;;4400894;32;20160;-71
2020/12/18 11:40:41;;;;;;;12.80;6.23;;;9.60;99.90;;;;;;4393767;32;20582;-73
2020/12/18 11:43:12;;;;;;;11.83;6.27;;;9.70;99.90;;;;;;4391949;32;20251;-73
2020/12/18 11:45:41;;;;;;;11.47;6.00;;;9.70;99.90;;;;;;4394262;32;20240;-73
2020/12/18 11:48:09;;;;;;;15.20;6.33;;;9.70;99.90;;;;;;4391512;32;20205;-72
2020/12/18 11:50:38;;;;;;;15.00;6.53;;;9.70;99.90;;;;;;4393043;32;20181;-73
2020/12/18 11:53:09;;;;;;;12.43;5.77;;;9.80;99.90;;;;;;4395893;32;20160;-73
2020/12/18 11:58:27;;;;;;;12.50;6.10;;;9.80;99.90;;;;;;4392929;32;20226;-71
2020/12/18 12:00:56;;;;;;;13.87;5.60;;;9.80;99.90;;;;;;4390368;32;20174;-71
2020/12/18 12:03:25;;;;;;;15.57;6.10;;;9.80;99.90;;;;;;4395246;32;20329;-72
2020/12/18 12:06:04;;;;;;;10.93;5.90;;;9.90;99.90;;;;;;4394210;32;20678;-71
2020/12/18 12:08:50;;;;;;;10.47;4.70;;;9.90;99.90;;;;;;4390465;32;20586;-74
2020/12/18 12:11:16;;;;;;;12.27;4.90;;;9.80;99.90;;;;;;4391617;32;20184;-74
2020/12/18 12:13:45;;;;;;;11.50;4.93;;;9.90;99.90;;;;;;4395751;32;20190;-71
2020/12/18 12:16:14;;;;;;;11.80;4.90;;;9.90;99.90;;;;;;4391589;32;20657;-74
2020/12/18 12:18:40;;;;;;;10.17;4.67;;;9.90;99.90;;;;;;4394792;32;20253;-71
2020/12/18 12:21:17;;;;;;;15.03;4.33;;;9.90;99.90;;;;;;4396295;32;20171;-72
2020/12/18 12:23:43;;;;;;;8.47;4.20;;;9.90;99.90;;;;;;4394999;32;20202;-72
2020/12/18 12:26:11;;;;;;;9.53;4.60;;;9.90;99.90;;;;;;4390954;32;20219;-72
2020/12/18 12:28:37;;;;;;;7.30;3.80;;;9.90;99.90;;;;;;4397911;32;20264;-71
2020/12/18 12:31:05;;;;;;;9.73;4.37;;;9.90;99.90;;;;;;4391142;32;20237;-71
2020/12/18 12:33:33;;;;;;;9.87;4.70;;;10.00;99.90;;;;;;4393804;32;20528;-72
2020/12/18 12:36:04;;;;;;;12.33;4.70;;;10.00;99.90;;;;;;4391544;32;20231;-71
2020/12/18 12:38:36;;;;;;;14.40;5.03;;;10.00;99.90;;;;;;4392911;32;20243;-70
2020/12/18 12:41:09;;;;;;;6.50;3.97;;;10.00;99.90;;;;;;4395897;32;20213;-72
2020/12/18 12:43:35;;;;;;;7.67;4.07;;;10.00;99.90;;;;;;4392975;32;20158;-73
2020/12/18 12:46:01;;;;;;;10.50;4.07;;;10.10;99.90;;;;;;4394394;32;20206;-71
2020/12/18 12:48:30;;;;;;;11.23;4.20;;;10.10;99.90;;;;;;4393778;32;20717;-71
2020/12/18 12:51:01;;;;;;;9.03;3.80;;;10.10;99.90;;;;;;4389908;32;20209;-71
2020/12/18 12:53:31;;;;;;;8.20;4.10;;;10.10;99.90;;;;;;4404132;32;20295;-68
2020/12/18 12:55:57;;;;;;;8.53;3.83;;;10.10;99.90;;;;;;4397980;32;20569;-69
2020/12/18 12:58:23;;;;;;;4.40;3.30;;;10.10;99.90;;;;;;4390352;32;20216;-69
2020/12/18 13:00:55;;;;;;;8.47;3.83;;;10.00;99.90;;;;;;4388929;32;20164;-73
2020/12/18 13:03:21;;;;;;;10.57;3.80;;;10.00;99.90;;;;;;4388573;32;20246;-70
2020/12/18 13:05:50;;;;;;;8.73;3.37;;;10.10;99.90;;;;;;4399450;32;21028;-70